Aviation Digital Data Service (ADDS)

Output produced by METARs form (1852 UTC 19 April 2019)
found at http://www.aviationweather.gov/metar/data/
 
METAR text: RJOZ 190333Z 01011KT 9999 FEW015 SCT030 BKN040 18/14 Q1015 RMK 2CU015 3CU030 7CU040 A2999
Conditions at: RJOZ (OZUKI (JMSDF) , JP) observed 0333 UTC 19 April 2019
Temperature: 18.0°C (64°F)
Dewpoint: 14.0°C (57°F) [RH = 77%]
Pressure (altimeter): 29.97 inches Hg (1015.0 mb)
Winds: from the N (10 degrees) at 13 MPH (11 knots; 5.7 m/s)
Visibility: 6 or more miles (10+ km)
Ceiling: 4000 feet AGL
Clouds: few clouds at 1500 feet AGL
scattered clouds at 3000 feet AGL
broken clouds at 4000 feet AGL
Weather: no significant weather observed at this time

METAR text: RJOZ 190132Z 27007KT 9999 SCT015 BKN025 17/14 Q1016 RMK 4CU015 7CU025 A3001
Conditions at: RJOZ (OZUKI (JMSDF) , JP) observed 0132 UTC 19 April 2019
Temperature: 17.0°C (63°F)
Dewpoint: 14.0°C (57°F) [RH = 82%]
Pressure (altimeter): 30.00 inches Hg (1016.0 mb)
Winds: from the W (270 degrees) at 8 MPH (7 knots; 3.6 m/s)
Visibility: 6 or more miles (10+ km)
Ceiling: 2500 feet AGL
Clouds: scattered clouds at 1500 feet AGL
broken clouds at 2500 feet AGL
Weather: no significant weather observed at this time

METAR text: RJOZ 190104Z 29007KT 9999 -SHRA BKN015 BKN025 17/14 Q1016 RMK 5CU015 7CU025 A3001
Conditions at: RJOZ (OZUKI (JMSDF) , JP) observed 0104 UTC 19 April 2019
Temperature: 17.0°C (63°F)
Dewpoint: 14.0°C (57°F) [RH = 82%]
Pressure (altimeter): 30.00 inches Hg (1016.0 mb)
Winds: from the WNW (290 degrees) at 8 MPH (7 knots; 3.6 m/s)
Visibility: 6 or more miles (10+ km)
Ceiling: 1500 feet AGL
Clouds: broken clouds at 1500 feet AGL
broken clouds at 2500 feet AGL
Weather: -SHRA  (light rain showers)

METAR text: RJOZ 182119Z 30004KT 9999 FEW015 SCT020 15/13 Q1015 RMK 1CU015 4CU020 A2997
Conditions at: RJOZ (OZUKI (JMSDF) , JP) observed 2119 UTC 18 April 2019
Temperature: 15.0°C (59°F)
Dewpoint: 13.0°C (55°F) [RH = 88%]
Pressure (altimeter): 29.97 inches Hg (1015.0 mb)
Winds: from the WNW (300 degrees) at 5 MPH (4 knots; 2.1 m/s)
Visibility: 6 or more miles (10+ km)
Ceiling: at least 12,000 feet AGL
Clouds: few clouds at 1500 feet AGL
scattered clouds at 2000 feet AGL
Weather: no significant weather observed at this time

METAR text: RJOZ 182039Z 25003KT 9999 FEW015 BKN020 BKN/// 15/12 Q1014 RMK 1CU015 5CU020 A2996
Conditions at: RJOZ (OZUKI (JMSDF) , JP) observed 2039 UTC 18 April 2019
Temperature: 15.0°C (59°F)
Dewpoint: 12.0°C (54°F) [RH = 82%]
Pressure (altimeter): 29.94 inches Hg (1014.0 mb)
Winds: from the WSW (250 degrees) at 3 MPH (3 knots; 1.5 m/s)
Visibility: 6 or more miles (10+ km)
Ceiling: 2000 feet AGL
Clouds: few clouds at 1500 feet AGL
broken clouds at 2000 feet AGL
Weather: no significant weather observed at this time